Herstmonceux, United Kingdom
Current Conditions -  °F | °C
As of 9:50 AM on Sunday 26 Oct 2014 (Local Time) from EGKA Reporting Station
Scattered Clouds Scattered Clouds  
Wind Chill: 59°   Ceiling: Unl
Heat Index: 59°   Visibility: 6mi
Dew Point: 50°   Wind: 13mph
Humidity: 72%   Direction: 220°SW
Pressure: 30.18"   Gusts: NA
Location:  50.89°N, 0.32°E
Report Text: EGKA 260850Z 22011KT 9999 SCT040 15/10 Q1022
Loading
Personal Weather Stations






























Interactive Weather Map New forecast layout! Learn more

10-Day Weather Forecast

Advertisements
Track Severe Weather on mobile